Time;durP1;ratioP1;P1;durP2;ratioP2;P2;SDS_P1;SDS_P2;PMS_P1;PMS_P2;Temp;Humidity;BMP_temperature;BMP_pressure;BME280_temperature;BME280_humidity;BME280_pressure;Samples;Min_cycle;Max_cycle;Signal;HPM_P1;HPM_P2
2023/05/05 00:01:31;;;;;;;2.95;2.70;;;17.40;99.90;;;;;;7388045;19;20600;-76
2023/05/05 00:03:57;;;;;;;3.35;2.78;;;17.60;99.90;;;;;;7387498;19;20131;-75
2023/05/05 00:06:23;;;;;;;4.03;2.63;;;17.50;99.90;;;;;;7390766;19;20547;-75
2023/05/05 00:08:49;;;;;;;8.48;3.38;;;17.60;99.90;;;;;;7387821;19;20635;-75
2023/05/05 00:11:15;;;;;;;4.53;3.38;;;17.80;99.90;;;;;;7388857;19;20631;-75
2023/05/05 00:13:40;;;;;;;4.20;2.53;;;17.80;99.90;;;;;;7389433;19;20158;-75
2023/05/05 00:16:07;;;;;;;5.65;2.85;;;17.80;99.90;;;;;;7388309;19;20146;-76
2023/05/05 00:18:32;;;;;;;4.60;2.60;;;17.70;99.90;;;;;;7389528;19;20146;-76
2023/05/05 00:20:58;;;;;;;3.00;2.70;;;17.60;99.90;;;;;;7386203;19;20156;-75
2023/05/05 00:23:24;;;;;;;4.05;2.67;;;17.60;99.90;;;;;;7389244;19;20827;-75
2023/05/05 00:25:50;;;;;;;3.70;2.90;;;17.70;99.90;;;;;;7389304;19;20238;-75
2023/05/05 00:28:15;;;;;;;4.03;2.97;;;17.80;99.90;;;;;;7390117;19;20150;-75
2023/05/05 00:30:41;;;;;;;4.35;2.88;;;17.70;99.90;;;;;;7386790;19;20142;-76
2023/05/05 00:33:07;;;;;;;4.07;2.95;;;17.70;99.90;;;;;;7388961;19;20138;-76
2023/05/05 00:35:33;;;;;;;3.60;3.30;;;17.70;99.90;;;;;;7389990;19;20150;-76
2023/05/05 00:37:59;;;;;;;3.88;2.88;;;17.60;99.90;;;;;;7387969;19;20135;-75
2023/05/05 00:40:24;;;;;;;5.05;2.90;;;17.60;99.90;;;;;;7387077;19;20145;-77
2023/05/05 00:42:50;;;;;;;4.20;3.28;;;17.70;99.90;;;;;;7385663;19;20154;-76
2023/05/05 00:45:18;;;;;;;3.83;3.08;;;17.70;99.90;;;;;;7388474;19;20172;-76
2023/05/05 00:47:50;;;;;;;4.93;2.78;;;17.70;99.90;;;;;;7387350;19;20135;-76
2023/05/05 00:50:26;;;;;;;6.97;2.92;;;17.70;99.90;;;;;;7387689;19;20208;-76
2023/05/05 00:53:03;;;;;;;3.55;2.80;;;17.60;99.90;;;;;;7385797;19;20528;-76
2023/05/05 00:55:29;;;;;;;2.63;2.40;;;17.70;99.90;;;;;;7387159;19;20153;-76
2023/05/05 00:57:57;;;;;;;2.83;2.60;;;17.60;99.90;;;;;;7389979;19;20142;-76
2023/05/05 01:00:23;;;;;;;3.45;2.78;;;17.70;99.90;;;;;;7385254;19;20194;-72
2023/05/05 01:02:50;;;;;;;4.88;2.78;;;17.60;99.90;;;;;;7387516;19;20162;-72
2023/05/05 01:05:18;;;;;;;3.40;2.42;;;17.60;99.90;;;;;;7385769;19;20149;-73
2023/05/05 01:07:54;;;;;;;4.18;3.00;;;17.60;99.90;;;;;;7388260;19;20153;-72
2023/05/05 01:10:53;;;;;;;4.63;3.17;;;17.60;99.90;;;;;;7389214;19;20674;-72
2023/05/05 01:13:25;;;;;;;2.88;2.58;;;17.60;99.90;;;;;;7385062;19;20151;-73
2023/05/05 01:15:53;;;;;;;3.45;2.80;;;17.60;99.90;;;;;;7386650;19;20157;-73
2023/05/05 01:18:31;;;;;;;5.93;2.83;;;17.50;99.90;;;;;;7384506;19;20150;-73
2023/05/05 01:21:18;;;;;;;4.35;2.95;;;17.60;99.90;;;;;;7384445;19;20158;-72
2023/05/05 01:24:23;;;;;;;4.30;2.50;;;17.60;99.90;;;;;;7387029;19;20146;-72
2023/05/05 01:27:08;;;;;;;3.20;2.53;;;17.60;99.90;;;;;;7383032;19;20611;-72
2023/05/05 01:29:43;;;;;;;3.00;2.70;;;17.60;99.90;;;;;;7388984;19;20146;-72
2023/05/05 01:32:13;;;;;;;3.17;2.72;;;17.60;99.90;;;;;;7386147;19;20145;-72
2023/05/05 01:35:00;;;;;;;3.10;2.80;;;17.70;99.90;;;;;;7385676;19;20155;-71
2023/05/05 01:37:36;;;;;;;3.75;2.75;;;17.60;99.90;;;;;;7385449;19;20154;-72
2023/05/05 01:40:06;;;;;;;3.67;2.88;;;17.50;99.90;;;;;;7385585;19;20126;-71
2023/05/05 01:42:35;;;;;;;3.75;2.65;;;17.50;99.90;;;;;;7382948;19;20185;-72
2023/05/05 01:45:03;;;;;;;3.00;2.67;;;17.30;99.90;;;;;;7382451;19;20171;-73
2023/05/05 01:47:30;;;;;;;3.05;2.65;;;17.40;99.90;;;;;;7389436;19;20165;-73
2023/05/05 01:49:57;;;;;;;3.65;2.92;;;17.40;99.90;;;;;;7384720;19;20580;-73
2023/05/05 01:52:27;;;;;;;4.05;2.55;;;17.40;99.90;;;;;;7387576;19;20139;-72
2023/05/05 01:54:58;;;;;;;2.90;2.28;;;17.10;99.90;;;;;;7386967;19;20155;-72
2023/05/05 01:57:25;;;;;;;3.70;2.75;;;17.20;99.90;;;;;;7384810;19;20447;-72
2023/05/05 01:59:52;;;;;;;3.40;2.60;;;17.00;99.90;;;;;;7382976;19;20143;-72
2023/05/05 02:02:20;;;;;;;5.53;2.72;;;17.20;99.90;;;;;;7386324;19;20154;-72
2023/05/05 02:04:48;;;;;;;2.90;2.60;;;17.20;99.90;;;;;;7386970;19;20460;-71
2023/05/05 02:07:15;;;;;;;3.95;2.88;;;17.30;99.90;;;;;;7386437;19;20139;-71
2023/05/05 02:09:43;;;;;;;4.93;3.20;;;17.10;99.90;;;;;;7385531;19;21568;-72
2023/05/05 02:12:10;;;;;;;3.13;2.80;;;17.10;99.90;;;;;;7384271;19;20139;-71
2023/05/05 02:14:37;;;;;;;3.88;2.75;;;17.00;99.90;;;;;;7384400;19;20604;-72
2023/05/05 02:17:03;;;;;;;4.25;2.97;;;17.10;99.90;;;;;;7385218;19;20215;-72
2023/05/05 02:19:37;;;;;;;5.07;2.95;;;17.10;99.90;;;;;;7385477;19;20167;-72
2023/05/05 02:22:03;;;;;;;4.35;2.90;;;17.00;99.90;;;;;;7385831;19;20139;-71
2023/05/05 02:24:29;;;;;;;3.00;2.75;;;17.00;99.90;;;;;;7382292;19;20142;-72
2023/05/05 02:26:57;;;;;;;5.43;2.70;;;17.10;99.90;;;;;;7384256;19;20135;-73
2023/05/05 02:29:34;;;;;;;3.97;3.10;;;17.30;99.90;;;;;;7382946;19;20143;-73
2023/05/05 02:32:05;;;;;;;4.45;2.95;;;17.30;99.90;;;;;;7384949;19;20149;-73
2023/05/05 02:34:35;;;;;;;4.18;3.17;;;17.20;99.90;;;;;;7385773;19;20139;-72
2023/05/05 02:37:07;;;;;;;3.88;3.10;;;17.30;99.90;;;;;;7386113;19;20206;-72
2023/05/05 02:39:57;;;;;;;5.95;2.97;;;17.20;99.90;;;;;;7390540;19;20362;-72
2023/05/05 02:42:28;;;;;;;3.95;2.85;;;17.20;99.90;;;;;;7387624;19;20176;-72
2023/05/05 02:44:58;;;;;;;2.95;2.53;;;17.30;99.90;;;;;;7392243;19;20149;-73
2023/05/05 02:47:36;;;;;;;4.68;3.00;;;17.10;99.90;;;;;;7390946;19;20607;-72
2023/05/05 02:50:04;;;;;;;3.83;3.10;;;17.20;99.90;;;;;;7390362;19;20145;-71
2023/05/05 02:52:31;;;;;;;4.40;2.90;;;17.20;99.90;;;;;;7393485;19;20142;-72
2023/05/05 02:54:58;;;;;;;5.18;2.63;;;17.20;99.90;;;;;;7392281;19;20138;-72
2023/05/05 02:57:34;;;;;;;3.78;2.85;;;17.00;99.90;;;;;;7389245;19;20134;-71
2023/05/05 03:00:06;;;;;;;4.47;2.80;;;16.90;99.90;;;;;;7382394;19;20149;-71
2023/05/05 03:03:04;;;;;;;3.50;2.83;;;16.60;99.90;;;;;;7388952;19;20146;-72
2023/05/05 03:05:44;;;;;;;3.10;2.80;;;16.60;99.90;;;;;;7390630;19;20162;-72
2023/05/05 03:08:17;;;;;;;3.45;2.83;;;16.60;99.90;;;;;;7387375;19;20162;-73
2023/05/05 03:11:04;;;;;;;5.18;2.97;;;16.60;99.90;;;;;;7389622;19;20154;-72
2023/05/05 03:13:33;;;;;;;8.43;3.63;;;16.50;99.90;;;;;;7389281;19;20150;-73
2023/05/05 03:16:05;;;;;;;5.68;3.20;;;16.80;99.90;;;;;;7389648;19;20575;-72
2023/05/05 03:18:36;;;;;;;5.97;3.65;;;16.70;99.90;;;;;;7390217;19;20135;-71
2023/05/05 03:21:07;;;;;;;4.50;3.22;;;16.80;99.90;;;;;;7391276;19;20138;-72
2023/05/05 03:23:34;;;;;;;5.40;3.38;;;16.90;99.90;;;;;;7390905;19;20131;-72
2023/05/05 03:25:59;;;;;;;4.38;3.75;;;16.80;99.90;;;;;;7391065;19;20246;-73
2023/05/05 03:28:25;;;;;;;3.90;3.30;;;16.80;99.90;;;;;;7391647;19;20138;-72
2023/05/05 03:30:52;;;;;;;5.45;3.60;;;17.00;99.90;;;;;;7391057;19;20153;-71
2023/05/05 03:33:18;;;;;;;5.88;3.53;;;17.00;99.90;;;;;;7392310;19;20182;-71
2023/05/05 03:35:43;;;;;;;6.07;3.00;;;16.90;99.90;;;;;;7392699;19;20600;-71
2023/05/05 03:38:09;;;;;;;4.20;3.65;;;16.80;99.90;;;;;;7390525;19;20131;-71
2023/05/05 03:40:35;;;;;;;7.05;3.60;;;16.90;99.90;;;;;;7389076;19;20142;-72
2023/05/05 03:43:01;;;;;;;5.18;3.85;;;17.10;99.90;;;;;;7388658;19;20611;-73
2023/05/05 03:45:26;;;;;;;4.95;3.95;;;17.10;99.90;;;;;;7387168;19;20147;-73
2023/05/05 03:47:52;;;;;;;4.97;3.83;;;17.00;99.90;;;;;;7391678;19;20177;-73
2023/05/05 03:50:18;;;;;;;3.50;3.20;;;17.10;99.90;;;;;;7384326;19;20150;-72
2023/05/05 03:52:44;;;;;;;6.65;4.07;;;17.00;99.90;;;;;;7391532;19;20215;-71
2023/05/05 03:55:09;;;;;;;5.18;3.80;;;16.90;99.90;;;;;;7388154;19;20142;-72
2023/05/05 03:57:35;;;;;;;7.35;3.95;;;17.00;99.90;;;;;;7391163;19;20135;-72
2023/05/05 04:00:01;;;;;;;6.68;3.97;;;16.90;99.90;;;;;;7388524;19;20150;-72
2023/05/05 04:02:26;;;;;;;4.88;3.90;;;16.80;99.90;;;;;;7388230;19;20603;-72
2023/05/05 04:04:52;;;;;;;5.28;3.80;;;16.70;99.90;;;;;;7387756;19;20595;-72
2023/05/05 04:07:18;;;;;;;7.38;3.95;;;16.70;99.90;;;;;;7390777;19;20151;-72
2023/05/05 04:09:44;;;;;;;4.35;3.92;;;16.80;99.90;;;;;;7386685;19;20134;-72
2023/05/05 04:12:10;;;;;;;5.70;4.03;;;16.90;99.90;;;;;;7388726;19;20143;-72
2023/05/05 04:14:36;;;;;;;7.70;4.47;;;17.00;99.90;;;;;;7385991;19;20142;-72
2023/05/05 04:17:02;;;;;;;10.57;4.07;;;17.00;99.90;;;;;;7388205;19;20147;-72
2023/05/05 04:19:30;;;;;;;5.55;4.40;;;17.00;99.90;;;;;;7387231;19;20160;-71
2023/05/05 04:21:56;;;;;;;4.93;3.80;;;16.90;99.90;;;;;;7388052;19;20139;-71
2023/05/05 04:24:23;;;;;;;8.15;4.47;;;17.00;99.90;;;;;;7388772;19;20486;-72
2023/05/05 04:26:52;;;;;;;5.78;4.47;;;16.90;99.90;;;;;;7387849;19;20147;-72
2023/05/05 04:29:18;;;;;;;6.32;4.25;;;16.90;99.90;;;;;;7388015;19;20158;-72
2023/05/05 04:31:44;;;;;;;7.55;4.78;;;16.60;99.90;;;;;;7388489;19;20587;-71
2023/05/05 04:34:10;;;;;;;5.03;3.85;;;16.70;99.90;;;;;;7389423;19;20142;-71
2023/05/05 04:36:36;;;;;;;5.88;4.82;;;16.70;99.90;;;;;;7387305;19;20615;-72
2023/05/05 04:39:02;;;;;;;6.78;3.65;;;16.80;99.90;;;;;;7388352;19;20142;-72
2023/05/05 04:41:27;;;;;;;6.65;4.40;;;16.80;99.90;;;;;;7387289;19;20587;-71
2023/05/05 04:43:56;;;;;;;5.10;4.03;;;16.90;99.90;;;;;;7386789;19;20138;-71
2023/05/05 04:46:23;;;;;;;6.90;4.35;;;17.00;99.90;;;;;;7388094;19;20489;-72
2023/05/05 04:48:49;;;;;;;5.25;4.05;;;16.90;99.90;;;;;;7389160;19;20222;-71
2023/05/05 04:51:15;;;;;;;7.82;4.43;;;16.80;99.90;;;;;;7386873;19;20155;-72
2023/05/05 04:53:41;;;;;;;7.40;4.45;;;16.80;99.90;;;;;;7387774;19;20201;-72
2023/05/05 04:56:07;;;;;;;7.07;4.47;;;16.80;99.90;;;;;;7390783;19;20142;-71
2023/05/05 04:58:35;;;;;;;7.43;4.55;;;16.90;99.90;;;;;;7386677;19;20139;-72
2023/05/05 05:01:01;;;;;;;6.70;4.93;;;16.90;99.90;;;;;;7383201;19;20202;-72
2023/05/05 05:03:30;;;;;;;7.80;4.40;;;17.10;99.90;;;;;;7385930;19;20592;-71
2023/05/05 05:05:56;;;;;;;5.28;4.20;;;17.10;99.90;;;;;;7388654;19;20139;-72
2023/05/05 05:08:22;;;;;;;8.20;4.80;;;17.10;99.90;;;;;;7384303;19;20403;-72
2023/05/05 05:10:48;;;;;;;8.43;4.95;;;17.20;99.90;;;;;;7386701;19;20149;-72
2023/05/05 05:13:14;;;;;;;9.88;4.57;;;17.20;99.90;;;;;;7387313;19;20135;-71
2023/05/05 05:15:40;;;;;;;7.75;4.93;;;17.20;99.90;;;;;;7388744;19;20231;-72
2023/05/05 05:18:06;;;;;;;7.10;4.70;;;17.10;99.90;;;;;;7387641;19;20580;-73
2023/05/05 05:20:32;;;;;;;6.95;4.60;;;17.10;99.90;;;;;;7385576;19;20152;-72
2023/05/05 05:23:00;;;;;;;9.02;5.13;;;17.10;99.90;;;;;;7384150;19;20218;-73
2023/05/05 05:25:27;;;;;;;7.15;4.68;;;17.10;99.90;;;;;;7386907;19;20607;-72
2023/05/05 05:27:52;;;;;;;7.28;4.70;;;17.20;99.90;;;;;;7384939;19;20162;-73
2023/05/05 05:30:18;;;;;;;8.93;5.03;;;17.30;99.90;;;;;;7386197;19;20150;-72
2023/05/05 05:32:44;;;;;;;6.15;4.72;;;17.30;99.90;;;;;;7386182;19;20130;-72
2023/05/05 05:35:10;;;;;;;6.25;4.43;;;17.30;99.90;;;;;;7386421;19;20138;-72
2023/05/05 05:37:35;;;;;;;8.10;4.93;;;17.30;99.90;;;;;;7383929;19;20155;-73
2023/05/05 05:40:03;;;;;;;7.32;4.82;;;17.40;99.90;;;;;;7384157;19;20440;-72
2023/05/05 05:42:29;;;;;;;5.72;4.13;;;17.50;99.90;;;;;;7384484;19;20185;-71
2023/05/05 05:44:57;;;;;;;6.53;4.20;;;17.50;99.90;;;;;;7387403;19;20230;-72
2023/05/05 05:47:23;;;;;;;6.03;4.35;;;17.50;99.90;;;;;;7385473;19;20164;-72
2023/05/05 05:49:49;;;;;;;6.95;4.20;;;17.50;99.90;;;;;;7384852;19;20611;-73
2023/05/05 05:52:14;;;;;;;5.20;4.32;;;17.60;99.90;;;;;;7385316;19;20122;-72
2023/05/05 05:54:40;;;;;;;7.10;4.03;;;17.70;99.90;;;;;;7382397;19;20313;-71
2023/05/05 05:57:06;;;;;;;7.85;5.03;;;17.70;99.90;;;;;;7381115;19;20173;-72
2023/05/05 05:59:32;;;;;;;5.20;4.20;;;17.80;99.90;;;;;;7382946;19;20147;-72
2023/05/05 06:01:58;;;;;;;6.43;4.68;;;17.90;99.90;;;;;;7380487;19;20171;-72
2023/05/05 06:04:23;;;;;;;9.70;4.53;;;17.90;99.90;;;;;;7383453;19;20141;-72
2023/05/05 06:06:49;;;;;;;5.97;4.65;;;18.00;99.90;;;;;;7383761;19;20138;-72
2023/05/05 06:09:15;;;;;;;6.55;4.63;;;18.10;99.90;;;;;;7383170;19;20134;-72
2023/05/05 06:11:40;;;;;;;5.50;4.30;;;18.10;99.90;;;;;;7384920;19;20127;-71
2023/05/05 06:14:06;;;;;;;6.70;4.50;;;18.00;99.90;;;;;;7391322;19;20202;-71
2023/05/05 06:16:32;;;;;;;7.25;4.65;;;18.00;99.90;;;;;;7391278;19;20641;-72
2023/05/05 06:18:58;;;;;;;4.35;3.95;;;17.90;99.90;;;;;;7394614;19;20642;-72
2023/05/05 06:21:23;;;;;;;8.27;4.50;;;17.90;99.90;;;;;;7390389;19;20153;-72
2023/05/05 06:23:49;;;;;;;5.10;4.13;;;17.80;99.90;;;;;;7392206;19;20234;-72
2023/05/05 06:26:15;;;;;;;7.38;4.40;;;17.90;99.90;;;;;;7392302;19;20151;-71
2023/05/05 06:28:41;;;;;;;6.32;4.35;;;18.00;99.90;;;;;;7393814;19;20190;-71
2023/05/05 06:31:07;;;;;;;6.50;4.28;;;18.10;99.90;;;;;;7391209;19;20202;-71
2023/05/05 06:33:33;;;;;;;4.78;3.70;;;18.10;99.90;;;;;;7391994;19;20142;-72
2023/05/05 06:35:58;;;;;;;6.47;4.25;;;18.10;99.90;;;;;;7391645;19;20137;-71
2023/05/05 06:38:24;;;;;;;7.07;5.10;;;18.30;99.90;;;;;;7391794;19;20157;-73
2023/05/05 06:40:50;;;;;;;6.07;4.40;;;18.40;99.90;;;;;;7391222;19;20150;-72
2023/05/05 06:43:17;;;;;;;7.18;4.45;;;18.60;99.90;;;;;;7388755;19;20258;-73
2023/05/05 06:45:44;;;;;;;9.07;4.30;;;19.10;99.90;;;;;;7384648;19;20143;-73
2023/05/05 06:48:11;;;;;;;6.90;4.28;;;19.70;99.90;;;;;;7389487;19;20495;-73
2023/05/05 06:50:36;;;;;;;5.25;3.88;;;20.10;99.90;;;;;;7385744;19;20149;-72
2023/05/05 06:53:02;;;;;;;4.95;3.50;;;20.60;99.90;;;;;;7388224;19;20527;-72
2023/05/05 06:55:28;;;;;;;5.43;3.70;;;20.50;99.90;;;;;;7389322;19;20177;-72
2023/05/05 06:57:53;;;;;;;6.43;3.45;;;20.50;99.90;;;;;;7392020;19;20142;-71
2023/05/05 07:00:20;;;;;;;6.15;3.35;;;20.40;99.90;;;;;;7389140;19;20139;-72
2023/05/05 07:02:46;;;;;;;7.63;4.15;;;20.20;99.90;;;;;;7391380;19;20176;-72
2023/05/05 07:05:12;;;;;;;4.75;3.42;;;20.00;99.90;;;;;;7389857;19;20142;-72
2023/05/05 07:07:50;;;;;;;6.03;3.90;;;20.00;99.90;;;;;;7394459;19;20158;-72
2023/05/05 07:10:16;;;;;;;6.05;4.57;;;19.90;99.90;;;;;;7388315;19;20139;-71
2023/05/05 07:12:41;;;;;;;6.20;4.50;;;19.80;99.90;;;;;;7391150;19;20585;-70
2023/05/05 07:15:08;;;;;;;7.38;4.75;;;19.70;99.90;;;;;;7391114;19;20494;-72
2023/05/05 07:17:33;;;;;;;6.35;4.38;;;19.70;99.90;;;;;;7391459;19;20281;-72
2023/05/05 07:19:59;;;;;;;4.15;3.22;;;19.70;99.90;;;;;;7390709;19;20151;-73
2023/05/05 07:22:25;;;;;;;6.65;2.92;;;19.70;99.90;;;;;;7392509;19;20143;-72
2023/05/05 07:24:52;;;;;;;5.30;2.95;;;19.70;99.90;;;;;;7391175;19;20213;-72
2023/05/05 07:27:21;;;;;;;4.72;2.80;;;19.80;99.90;;;;;;7391473;19;20222;-72
2023/05/05 07:29:47;;;;;;;4.28;2.60;;;19.80;99.90;;;;;;7391144;19;20222;-72
2023/05/05 07:32:13;;;;;;;10.55;2.53;;;19.90;99.90;;;;;;7391313;19;20142;-72
2023/05/05 07:34:39;;;;;;;4.75;3.42;;;19.80;99.90;;;;;;7390700;19;20145;-73
2023/05/05 07:37:05;;;;;;;7.32;3.00;;;19.70;99.90;;;;;;7390729;19;20416;-71
2023/05/05 07:39:32;;;;;;;3.78;2.20;;;19.70;99.90;;;;;;7389128;19;20464;-73
2023/05/05 07:41:58;;;;;;;3.47;2.13;;;19.80;99.90;;;;;;7389318;19;20171;-73
2023/05/05 07:44:24;;;;;;;3.33;2.10;;;19.70;99.90;;;;;;7389387;19;20175;-73
2023/05/05 07:46:50;;;;;;;4.68;2.30;;;19.70;99.90;;;;;;7390745;19;20142;-72
2023/05/05 07:49:16;;;;;;;3.10;1.80;;;19.80;99.90;;;;;;7391014;19;20159;-72
2023/05/05 07:51:42;;;;;;;4.18;1.48;;;19.70;99.90;;;;;;7393506;19;20139;-73
2023/05/05 07:54:08;;;;;;;2.83;1.42;;;19.70;99.90;;;;;;7389630;19;20227;-74
2023/05/05 07:56:33;;;;;;;3.08;1.48;;;19.70;99.90;;;;;;7390352;19;20230;-72
2023/05/05 07:58:59;;;;;;;2.40;1.60;;;19.60;99.90;;;;;;7390383;19;20607;-74
2023/05/05 08:01:25;;;;;;;2.50;1.92;;;19.70;99.90;;;;;;7386748;19;20475;-73
2023/05/05 08:03:50;;;;;;;4.22;3.47;;;19.80;99.90;;;;;;7388239;19;20214;-73
2023/05/05 08:06:20;;;;;;;11.23;6.50;;;19.60;99.90;;;;;;7390001;19;20142;-73
2023/05/05 08:08:52;;;;;;;7.97;5.70;;;19.50;99.90;;;;;;7389464;19;20146;-74
2023/05/05 08:11:18;;;;;;;2.53;1.73;;;19.40;99.90;;;;;;7388645;19;20143;-71
2023/05/05 08:13:44;;;;;;;2.40;1.92;;;19.40;99.90;;;;;;7389954;19;20242;-72
2023/05/05 08:16:14;;;;;;;4.68;2.00;;;19.50;99.90;;;;;;7389313;19;20250;-72
2023/05/05 08:18:40;;;;;;;3.55;2.50;;;19.30;99.90;;;;;;7388045;19;20574;-72
2023/05/05 08:21:07;;;;;;;11.25;7.57;;;19.20;99.90;;;;;;7387250;19;20150;-72
2023/05/05 08:23:37;;;;;;;4.43;2.80;;;18.90;99.90;;;;;;7389832;19;20130;-71
2023/05/05 08:26:08;;;;;;;18.25;14.88;;;19.00;99.90;;;;;;7390075;19;20141;-72
2023/05/05 08:28:37;;;;;;;11.23;9.32;;;19.00;99.90;;;;;;7390540;19;20607;-72
2023/05/05 08:31:04;;;;;;;7.22;5.38;;;19.00;99.90;;;;;;7386646;19;20169;-73
2023/05/05 08:33:30;;;;;;;3.30;2.80;;;19.00;99.90;;;;;;7388435;19;20143;-73
2023/05/05 08:35:56;;;;;;;3.28;2.17;;;19.00;99.90;;;;;;7387816;19;20159;-73
2023/05/05 08:38:22;;;;;;;2.03;1.83;;;19.00;99.90;;;;;;7388233;19;20174;-72
2023/05/05 08:40:50;;;;;;;3.47;1.98;;;18.90;99.90;;;;;;7387322;19;20158;-73
2023/05/05 08:43:19;;;;;;;3.10;1.75;;;18.90;99.90;;;;;;7387511;19;20144;-72
2023/05/05 08:45:45;;;;;;;3.05;2.00;;;18.90;99.90;;;;;;7389186;19;20134;-73
2023/05/05 08:48:14;;;;;;;3.38;2.72;;;19.00;99.90;;;;;;7389885;19;20156;-73
2023/05/05 08:50:45;;;;;;;8.00;5.85;;;19.10;99.90;;;;;;7388616;19;20217;-74
2023/05/05 08:53:29;;;;;;;7.25;5.30;;;19.20;99.90;;;;;;7391065;19;20251;-72
2023/05/05 08:55:57;;;;;;;3.03;1.98;;;19.30;99.90;;;;;;7388045;19;20595;-72
2023/05/05 08:58:23;;;;;;;3.35;2.00;;;19.40;99.90;;;;;;7388445;19;20135;-74
2023/05/05 09:00:50;;;;;;;2.67;1.77;;;19.40;99.90;;;;;;7386040;19;20142;-72
2023/05/05 09:03:16;;;;;;;1.98;1.45;;;19.40;99.90;;;;;;7387754;19;20135;-74
2023/05/05 09:05:43;;;;;;;2.95;1.67;;;19.40;99.90;;;;;;7387163;19;20157;-73
2023/05/05 09:08:12;;;;;;;2.08;1.50;;;19.50;99.90;;;;;;7388433;19;20143;-73
2023/05/05 09:10:42;;;;;;;3.72;2.05;;;19.50;99.90;;;;;;7388490;19;20135;-73
2023/05/05 09:13:08;;;;;;;1.95;1.73;;;19.50;99.90;;;;;;7384987;19;20142;-72
2023/05/05 09:15:34;;;;;;;5.82;1.70;;;19.60;99.90;;;;;;7389418;19;20159;-73
2023/05/05 09:18:00;;;;;;;3.83;2.00;;;19.70;99.90;;;;;;7389533;19;20238;-72
2023/05/05 09:20:37;;;;;;;2.63;1.60;;;19.80;99.90;;;;;;7388444;19;20139;-73
2023/05/05 09:23:11;;;;;;;1.98;1.25;;;19.90;99.90;;;;;;7389493;19;20137;-72
2023/05/05 09:25:37;;;;;;;1.63;1.42;;;19.90;99.90;;;;;;7390157;19;20142;-72
2023/05/05 09:28:10;;;;;;;2.22;1.63;;;20.00;99.90;;;;;;7389347;19;20206;-72
2023/05/05 09:30:37;;;;;;;3.10;2.17;;;20.00;99.90;;;;;;7388976;19;20962;-71
2023/05/05 09:33:03;;;;;;;1.67;1.40;;;20.00;99.90;;;;;;7387897;19;20602;-73
2023/05/05 09:35:50;;;;;;;3.70;1.83;;;20.10;99.90;;;;;;7389056;19;20142;-72
2023/05/05 09:38:16;;;;;;;3.67;1.90;;;20.20;99.90;;;;;;7389410;19;20167;-71
2023/05/05 09:40:47;;;;;;;5.07;2.22;;;20.30;99.90;;;;;;7387718;19;20221;-73
2023/05/05 09:43:17;;;;;;;4.47;1.95;;;20.30;99.90;;;;;;7387337;19;20151;-72
2023/05/05 09:45:47;;;;;;;3.08;1.80;;;20.40;99.90;;;;;;7387770;19;20147;-73
2023/05/05 09:48:30;;;;;;;4.78;3.60;;;20.40;99.90;;;;;;7384739;19;20146;-73
2023/05/05 09:50:58;;;;;;;3.05;2.00;;;20.30;99.90;;;;;;7387089;19;20170;-74
2023/05/05 09:53:25;;;;;;;2.40;2.13;;;20.50;99.90;;;;;;7389298;19;20218;-72
2023/05/05 09:55:59;;;;;;;1.95;1.50;;;20.90;99.90;;;;;;7387171;19;20154;-72
2023/05/05 09:58:29;;;;;;;2.97;1.85;;;21.30;99.90;;;;;;7386239;19;20165;-72
2023/05/05 10:00:56;;;;;;;2.35;1.95;;;21.20;99.90;;;;;;7384285;19;20135;-72
2023/05/05 10:03:23;;;;;;;2.47;1.70;;;21.20;99.90;;;;;;7384935;19;20490;-73
2023/05/05 10:05:50;;;;;;;2.50;1.58;;;21.30;99.90;;;;;;7390124;19;20483;-71
2023/05/05 10:08:21;;;;;;;3.75;2.00;;;21.30;99.90;;;;;;7385756;19;20150;-71
2023/05/05 10:10:52;;;;;;;3.42;2.55;;;21.30;99.90;;;;;;7387555;19;20226;-72
2023/05/05 10:13:21;;;;;;;2.25;1.70;;;21.20;99.90;;;;;;7386283;19;20150;-72
2023/05/05 10:15:55;;;;;;;3.42;1.52;;;21.40;99.90;;;;;;7387671;19;20149;-72
2023/05/05 10:18:27;;;;;;;1.88;1.50;;;21.10;99.90;;;;;;7386920;19;20590;-72
2023/05/05 10:20:57;;;;;;;3.83;1.70;;;21.20;99.90;;;;;;7384449;19;20127;-73
2023/05/05 10:23:34;;;;;;;2.28;1.60;;;21.10;99.90;;;;;;7385666;19;20135;-72
2023/05/05 10:26:02;;;;;;;4.10;1.65;;;21.00;99.90;;;;;;7387546;19;20126;-72
2023/05/05 10:28:33;;;;;;;3.35;2.03;;;21.00;99.90;;;;;;7388350;19;20135;-73
2023/05/05 10:31:09;;;;;;;3.45;2.45;;;20.90;99.90;;;;;;7384769;19;20138;-73
2023/05/05 10:33:45;;;;;;;2.35;1.80;;;20.90;99.90;;;;;;7387279;19;20611;-73
2023/05/05 10:36:11;;;;;;;2.03;1.35;;;21.00;99.90;;;;;;7386272;19;20150;-73
2023/05/05 10:38:37;;;;;;;1.67;1.40;;;21.00;99.90;;;;;;7387323;19;20168;-72
2023/05/05 10:41:04;;;;;;;2.75;1.20;;;21.00;99.90;;;;;;7384537;19;20154;-73
2023/05/05 10:43:30;;;;;;;3.13;2.00;;;20.90;99.90;;;;;;7385621;19;20127;-74
2023/05/05 10:45:57;;;;;;;3.80;2.25;;;20.80;99.90;;;;;;7387649;19;20131;-72
2023/05/05 10:48:55;;;;;;;4.97;3.83;;;20.70;99.90;;;;;;7385799;19;20595;-72
2023/05/05 10:51:35;;;;;;;3.45;2.30;;;20.80;99.90;;;;;;7385690;19;20131;-72
2023/05/05 10:54:07;;;;;;;3.90;1.70;;;20.70;99.90;;;;;;7384563;19;20139;-71
2023/05/05 10:56:34;;;;;;;2.05;1.55;;;20.90;99.90;;;;;;7385726;19;20619;-72
2023/05/05 10:59:01;;;;;;;2.63;2.20;;;20.80;99.90;;;;;;7387359;19;20665;-73
2023/05/05 11:01:31;;;;;;;5.85;2.90;;;20.60;99.90;;;;;;7388442;19;20150;-73
2023/05/05 11:04:17;;;;;;;7.07;4.32;;;20.50;99.90;;;;;;7389779;19;20138;-72
2023/05/05 11:07:07;;;;;;;2.75;1.85;;;20.50;99.90;;;;;;7389468;19;20138;-71
2023/05/05 11:09:41;;;;;;;2.25;1.40;;;20.50;99.90;;;;;;7391249;19;20142;-74
2023/05/05 11:12:07;;;;;;;1.92;1.20;;;20.40;99.90;;;;;;7392415;19;20501;-74
2023/05/05 11:14:34;;;;;;;6.10;3.30;;;20.50;99.90;;;;;;7390184;19;20134;-72
2023/05/05 11:17:00;;;;;;;2.45;1.50;;;20.40;99.90;;;;;;7393394;19;20138;-74
2023/05/05 11:19:41;;;;;;;1.50;1.40;;;20.30;99.90;;;;;;7389759;19;20146;-74
2023/05/05 11:22:07;;;;;;;3.92;1.95;;;20.50;99.90;;;;;;7396839;19;20227;-73
2023/05/05 11:24:35;;;;;;;1.80;1.40;;;20.50;99.90;;;;;;7390172;19;20138;-71
2023/05/05 11:27:02;;;;;;;3.72;2.72;;;20.60;99.90;;;;;;7390468;19;20134;-72
2023/05/05 11:30:02;;;;;;;2.30;1.83;;;20.70;99.90;;;;;;7391731;19;20139;-73
2023/05/05 11:32:28;;;;;;;9.50;7.53;;;20.80;99.90;;;;;;7389425;19;20138;-72
2023/05/05 11:34:53;;;;;;;4.22;3.20;;;21.00;99.90;;;;;;7388820;19;20137;-72
2023/05/05 11:37:25;;;;;;;8.93;4.45;;;20.70;99.90;;;;;;7390331;19;20160;-72
2023/05/05 11:40:15;;;;;;;2.88;2.03;;;21.00;99.90;;;;;;7389660;19;20451;-72
2023/05/05 11:42:41;;;;;;;5.85;2.25;;;21.10;99.90;;;;;;7388590;19;20274;-72
2023/05/05 11:45:21;;;;;;;5.55;3.33;;;21.30;99.90;;;;;;7390130;19;20151;-71
2023/05/05 11:47:47;;;;;;;6.07;1.50;;;21.60;99.90;;;;;;7389596;19;20494;-71
2023/05/05 11:50:18;;;;;;;2.72;2.28;;;21.90;99.90;;;;;;7388676;19;20133;-72
2023/05/05 11:52:44;;;;;;;5.07;3.53;;;22.00;99.90;;;;;;7389568;19;20466;-74
2023/05/05 11:55:10;;;;;;;7.28;4.97;;;22.00;99.90;;;;;;7389620;19;20138;-72
2023/05/05 11:57:36;;;;;;;2.05;1.40;;;22.00;99.90;;;;;;7388438;19;20150;-72
2023/05/05 12:00:09;;;;;;;4.50;2.92;;;22.00;99.90;;;;;;7389779;19;20287;-73
2023/05/05 12:02:35;;;;;;;6.55;3.75;;;22.00;99.90;;;;;;7389670;19;20231;-73
2023/05/05 12:05:01;;;;;;;2.05;1.20;;;22.00;99.90;;;;;;7388008;19;20147;-73
2023/05/05 12:07:30;;;;;;;4.05;2.85;;;21.90;99.90;;;;;;7388138;19;20572;-73
2023/05/05 12:09:56;;;;;;;16.02;10.30;;;21.70;99.90;;;;;;7388842;19;20612;-72
2023/05/05 12:12:37;;;;;;;2.05;1.20;;;21.80;99.90;;;;;;7386860;19;20209;-73
2023/05/05 12:15:03;;;;;;;2.38;1.23;;;22.10;99.90;;;;;;7388017;19;20158;-71
2023/05/05 12:17:56;;;;;;;5.82;2.15;;;22.10;99.90;;;;;;7389074;19;20209;-72
2023/05/05 12:20:30;;;;;;;7.85;5.75;;;21.90;99.90;;;;;;7387414;19;20147;-73
2023/05/05 12:23:03;;;;;;;3.10;1.38;;;21.90;99.90;;;;;;7386004;19;20138;-73
2023/05/05 12:25:36;;;;;;;1.73;1.30;;;22.00;99.90;;;;;;7389036;19;20720;-73
2023/05/05 12:28:09;;;;;;;2.83;1.42;;;22.00;99.90;;;;;;7389586;19;20133;-72
2023/05/05 12:30:35;;;;;;;1.92;1.30;;;22.20;99.90;;;;;;7387941;19;20709;-73
2023/05/05 12:33:06;;;;;;;3.90;1.70;;;22.20;99.90;;;;;;7386671;19;20150;-73
2023/05/05 12:35:32;;;;;;;2.55;1.45;;;22.00;99.90;;;;;;7390246;19;20218;-72
2023/05/05 12:37:58;;;;;;;3.65;1.63;;;22.00;99.90;;;;;;7387697;19;20157;-73
2023/05/05 12:40:51;;;;;;;2.53;1.83;;;22.00;99.90;;;;;;7388749;19;20429;-73
2023/05/05 12:43:31;;;;;;;2.13;1.70;;;22.10;99.90;;;;;;7385127;19;20158;-72
2023/05/05 12:46:09;;;;;;;2.92;1.63;;;22.00;99.90;;;;;;7386775;19;20126;-75
2023/05/05 12:48:37;;;;;;;5.47;4.45;;;21.90;99.90;;;;;;7387944;19;20134;-74
2023/05/05 12:51:17;;;;;;;1.58;1.40;;;21.80;99.90;;;;;;7386863;19;20126;-74
2023/05/05 12:53:47;;;;;;;1.92;1.40;;;21.80;99.90;;;;;;7386639;19;20142;-73
2023/05/05 12:56:35;;;;;;;2.50;1.40;;;21.90;99.90;;;;;;7389797;19;20134;-73